Terminal Aerodrome Forecast
Issued by NWS

Home | Current Version | Previous Version | Text Only | Print | Product List | Glossary Off
Versions: 1 2 3 4 5 6 7 8 9 10 11 12 13 14 15 16 17 18 19 20 21 22 23 24 25 26 27 28 29 30

771
FTUS43 KABR 080115 AAA
TAFMBG
TAF AMD
KMBG 080115Z 0801/0824 32024G35KT P6SM -SN OVC025
     FM080300 31017G24KT P6SM OVC050
     FM081400 32014KT P6SM OVC050
     FM082200 32010KT P6SM SCT050=

USA.gov is the U.S. government's official web portal to all federal, state and local government web resources and services.